Time;durP1;ratioP1;P1;durP2;ratioP2;P2;SDS_P1;SDS_P2;PMS_P1;PMS_P2;Temp;Humidity;BMP_temperature;BMP_pressure;BME280_temperature;BME280_humidity;BME280_pressure;Samples;Min_cycle;Max_cycle;Signal;HPM_P1;HPM_P2
2024/01/31 00:00:08;;;;;;;1.50;1.20;;;8.20;98.20;;;;;;4955781;28;20757;-76
2024/01/31 00:02:35;;;;;;;1.57;1.20;;;8.20;98.20;;;;;;4958120;28;20473;-77
2024/01/31 00:05:02;;;;;;;1.60;1.20;;;8.10;98.20;;;;;;4955473;28;20467;-77
2024/01/31 00:07:32;;;;;;;1.60;1.20;;;8.10;98.20;;;;;;4945014;28;20475;-77
2024/01/31 00:09:59;;;;;;;1.60;1.20;;;8.10;98.20;;;;;;4954256;28;20530;-75
2024/01/31 00:12:27;;;;;;;1.60;1.20;;;8.10;98.20;;;;;;4944290;28;20491;-77
2024/01/31 00:14:54;;;;;;;1.57;1.20;;;8.10;98.20;;;;;;4955749;28;20857;-76
2024/01/31 00:17:24;;;;;;;1.53;1.20;;;8.00;98.20;;;;;;4957455;28;20772;-76
2024/01/31 00:19:51;;;;;;;1.53;1.20;;;8.00;98.20;;;;;;4961612;28;20490;-78
2024/01/31 00:22:18;;;;;;;1.53;1.20;;;8.00;98.20;;;;;;4959022;28;20481;-78
2024/01/31 00:24:46;;;;;;;1.60;1.13;;;8.00;98.20;;;;;;4966056;28;20854;-76
2024/01/31 00:27:12;;;;;;;1.60;1.30;;;8.00;98.20;;;;;;4966290;28;20485;-77
2024/01/31 00:29:39;;;;;;;3.30;3.00;;;8.00;98.20;;;;;;4967215;28;20870;-76
2024/01/31 00:32:07;;;;;;;1.60;1.30;;;8.00;98.20;;;;;;4961022;28;20489;-78
2024/01/31 00:34:35;;;;;;;1.60;1.30;;;8.00;98.20;;;;;;4964797;28;20493;-77
2024/01/31 00:37:01;;;;;;;1.60;1.30;;;8.00;98.20;;;;;;4963679;28;20923;-77
2024/01/31 00:39:31;;;;;;;1.60;1.20;;;8.00;98.20;;;;;;4962391;28;20725;-77
2024/01/31 00:41:58;;;;;;;1.60;1.20;;;7.90;98.20;;;;;;4958720;28;20478;-76
2024/01/31 00:44:26;;;;;;;1.57;1.20;;;7.90;98.20;;;;;;4963668;28;20470;-77
2024/01/31 00:46:53;;;;;;;1.57;1.10;;;7.90;98.20;;;;;;4964905;28;20547;-76
2024/01/31 00:49:19;;;;;;;1.57;1.10;;;7.90;98.20;;;;;;4968920;28;20578;-77
2024/01/31 00:51:47;;;;;;;1.60;1.20;;;7.90;98.20;;;;;;4954549;28;20516;-76
2024/01/31 00:54:16;;;;;;;1.60;1.20;;;7.90;98.20;;;;;;4969387;28;20562;-76
2024/01/31 00:56:43;;;;;;;1.60;1.20;;;7.90;98.20;;;;;;4950866;28;20488;-76
2024/01/31 00:59:10;;;;;;;1.60;1.20;;;7.90;98.20;;;;;;4961513;28;20513;-76
2024/01/31 01:01:36;;;;;;;1.57;1.10;;;7.90;98.20;;;;;;4945544;28;20902;-76
2024/01/31 01:04:03;;;;;;;1.57;1.10;;;7.90;98.20;;;;;;4961892;28;20454;-77
2024/01/31 01:06:30;;;;;;;1.57;1.17;;;7.90;98.20;;;;;;4952754;28;20489;-76
2024/01/31 01:08:58;;;;;;;1.60;1.20;;;7.90;98.20;;;;;;4967421;28;20501;-77
2024/01/31 01:11:29;;;;;;;1.57;1.10;;;7.90;98.20;;;;;;4947287;28;20483;-76
2024/01/31 01:13:56;;;;;;;1.60;1.20;;;7.90;98.20;;;;;;4963123;28;20474;-76
2024/01/31 01:16:23;;;;;;;1.60;1.20;;;7.90;98.20;;;;;;4942598;28;20541;-76
2024/01/31 01:18:50;;;;;;;1.60;1.20;;;7.90;98.20;;;;;;4959188;28;20493;-77
2024/01/31 01:21:16;;;;;;;1.60;1.20;;;7.90;98.20;;;;;;4947442;28;20486;-76
2024/01/31 01:23:43;;;;;;;1.60;1.20;;;7.90;98.20;;;;;;4958247;28;20502;-77
2024/01/31 01:26:13;;;;;;;1.60;1.10;;;7.90;98.20;;;;;;4955236;28;20493;-77
2024/01/31 01:28:43;;;;;;;1.60;1.30;;;7.90;98.20;;;;;;4960445;28;21035;-77
2024/01/31 01:31:10;;;;;;;1.60;1.20;;;7.90;98.20;;;;;;4951411;28;20474;-77
2024/01/31 01:33:37;;;;;;;1.53;1.20;;;7.80;98.20;;;;;;4971970;28;20546;-76
2024/01/31 01:36:07;;;;;;;1.60;1.20;;;7.90;98.20;;;;;;4952727;28;20501;-76
2024/01/31 01:38:35;;;;;;;1.60;1.30;;;7.90;98.20;;;;;;4970902;28;20459;-77
2024/01/31 01:41:02;;;;;;;1.60;1.20;;;7.90;98.20;;;;;;4953786;28;20512;-77
2024/01/31 01:43:30;;;;;;;1.53;1.20;;;7.90;98.20;;;;;;4952698;28;20474;-76
2024/01/31 01:46:16;;;;;;;1.50;1.20;;;7.80;98.20;;;;;;4956079;28;20467;-76
2024/01/31 01:48:46;;;;;;;1.57;1.20;;;7.90;98.20;;;;;;4973833;28;20493;-76
2024/01/31 01:51:16;;;;;;;1.57;1.20;;;7.90;98.20;;;;;;4960205;28;21016;-76
2024/01/31 01:53:43;;;;;;;1.60;1.20;;;7.80;98.20;;;;;;4973439;28;21021;-76
2024/01/31 01:56:11;;;;;;;1.57;1.20;;;7.90;98.20;;;;;;4960156;28;20489;-77
2024/01/31 01:58:39;;;;;;;1.57;1.23;;;7.80;98.20;;;;;;4974417;28;20473;-77
2024/01/31 02:01:08;;;;;;;1.50;1.20;;;7.80;98.20;;;;;;4958586;28;20463;-77
2024/01/31 02:03:36;;;;;;;1.57;1.20;;;7.80;98.20;;;;;;4957025;28;20471;-76
2024/01/31 02:06:04;;;;;;;1.50;1.10;;;7.80;98.20;;;;;;4960039;28;20465;-77
2024/01/31 02:08:31;;;;;;;1.60;1.20;;;7.80;98.20;;;;;;4957640;28;20461;-77
2024/01/31 02:10:58;;;;;;;1.60;1.20;;;7.80;98.20;;;;;;4950821;28;20462;-76
2024/01/31 02:13:25;;;;;;;1.57;1.13;;;7.80;98.20;;;;;;4975356;28;20478;-75
2024/01/31 02:15:54;;;;;;;1.60;1.20;;;7.80;98.20;;;;;;4954215;28;20501;-75
2024/01/31 02:18:21;;;;;;;1.60;1.20;;;7.80;98.20;;;;;;4978451;28;20480;-76
2024/01/31 02:20:48;;;;;;;1.60;1.20;;;7.80;98.20;;;;;;4950132;28;20463;-77
2024/01/31 02:23:17;;;;;;;1.60;1.33;;;7.80;98.20;;;;;;4974371;28;20479;-76
2024/01/31 02:25:43;;;;;;;1.60;1.20;;;7.80;98.20;;;;;;4959642;28;20917;-76
2024/01/31 02:28:10;;;;;;;1.60;1.20;;;7.80;98.20;;;;;;4937383;28;20475;-76
2024/01/31 02:30:37;;;;;;;1.60;1.20;;;7.70;98.20;;;;;;4962408;28;20989;-76
2024/01/31 02:33:05;;;;;;;1.60;1.23;;;7.80;98.20;;;;;;4960111;28;20493;-76
2024/01/31 02:35:34;;;;;;;2.13;1.93;;;7.70;98.20;;;;;;4963042;28;20491;-76
2024/01/31 02:38:00;;;;;;;1.60;1.17;;;7.70;98.20;;;;;;4944633;28;20493;-77
2024/01/31 02:40:29;;;;;;;1.60;1.20;;;7.70;98.20;;;;;;4955594;28;20522;-77
2024/01/31 02:42:57;;;;;;;1.60;1.20;;;7.80;98.20;;;;;;4972716;28;20493;-82
2024/01/31 02:45:24;;;;;;;1.60;1.20;;;7.80;98.20;;;;;;4964027;28;20463;-80
2024/01/31 02:47:52;;;;;;;1.60;1.30;;;7.80;98.20;;;;;;4959964;28;20548;-82
2024/01/31 02:50:21;;;;;;;1.57;1.20;;;7.80;98.20;;;;;;4967952;28;21035;-81
2024/01/31 02:52:51;;;;;;;1.60;1.20;;;7.70;98.20;;;;;;4966448;28;20477;-80
2024/01/31 02:55:17;;;;;;;1.57;1.20;;;7.80;98.20;;;;;;4972309;28;20494;-81
2024/01/31 02:57:45;;;;;;;1.57;1.20;;;7.80;98.20;;;;;;4972819;28;20485;-81
2024/01/31 03:00:12;;;;;;;1.50;1.20;;;7.80;98.20;;;;;;4969705;28;20233;-79
2024/01/31 03:02:39;;;;;;;1.60;1.20;;;7.80;98.20;;;;;;4976238;28;20501;-80
2024/01/31 03:05:07;;;;;;;1.57;1.27;;;7.80;98.20;;;;;;4968111;28;20466;-81
2024/01/31 03:07:34;;;;;;;1.60;1.20;;;7.80;98.20;;;;;;4955344;28;20881;-81
2024/01/31 03:10:01;;;;;;;1.60;1.20;;;7.80;98.20;;;;;;4962099;28;20489;-83
2024/01/31 03:12:27;;;;;;;1.57;1.20;;;7.70;98.20;;;;;;4966902;28;20501;-82
2024/01/31 03:14:56;;;;;;;1.60;1.20;;;7.70;98.20;;;;;;4979040;28;20557;-82
2024/01/31 03:17:22;;;;;;;1.60;1.20;;;7.70;98.20;;;;;;4959168;28;20485;-81
2024/01/31 03:19:49;;;;;;;1.60;1.30;;;7.80;98.20;;;;;;4966687;28;20494;-81
2024/01/31 03:22:16;;;;;;;1.53;1.20;;;7.80;98.20;;;;;;4966111;28;20492;-80
2024/01/31 03:24:43;;;;;;;1.60;1.20;;;7.80;98.20;;;;;;4977695;28;20541;-81
2024/01/31 03:27:10;;;;;;;1.60;1.23;;;7.80;98.20;;;;;;4963873;28;20482;-80
2024/01/31 03:29:37;;;;;;;1.60;1.20;;;7.80;98.20;;;;;;4971568;28;20490;-81
2024/01/31 03:32:06;;;;;;;1.57;1.20;;;7.70;98.20;;;;;;4965556;28;20490;-81
2024/01/31 03:34:33;;;;;;;1.60;1.20;;;7.70;98.20;;;;;;4969361;28;21052;-81
2024/01/31 03:37:02;;;;;;;1.60;1.20;;;7.60;98.20;;;;;;4964336;28;20516;-80
2024/01/31 03:39:29;;;;;;;1.53;1.20;;;7.60;98.20;;;;;;4968785;28;20549;-82
2024/01/31 03:41:56;;;;;;;1.60;1.30;;;7.60;98.20;;;;;;4950928;28;20506;-80
2024/01/31 03:44:22;;;;;;;1.60;1.20;;;7.60;98.20;;;;;;4965307;28;20461;-80
2024/01/31 03:46:49;;;;;;;1.60;1.20;;;7.50;98.20;;;;;;4957090;28;20509;-80
2024/01/31 03:49:17;;;;;;;1.60;1.20;;;7.50;98.20;;;;;;4968327;28;20510;-79
2024/01/31 03:51:44;;;;;;;1.60;1.30;;;7.50;98.20;;;;;;4944085;28;20485;-79
2024/01/31 03:54:11;;;;;;;1.60;1.20;;;7.50;98.20;;;;;;4962552;28;20489;-84
2024/01/31 03:56:38;;;;;;;1.60;1.30;;;7.40;98.20;;;;;;4959833;28;20488;-81
2024/01/31 03:59:05;;;;;;;1.53;1.20;;;7.40;98.20;;;;;;4971767;28;20491;-81
2024/01/31 04:01:32;;;;;;;1.60;1.20;;;7.40;98.20;;;;;;4951876;28;20502;-81
2024/01/31 04:03:58;;;;;;;1.60;1.30;;;7.40;98.20;;;;;;4961657;28;20473;-80
2024/01/31 04:06:26;;;;;;;1.60;1.20;;;7.40;98.20;;;;;;4952929;28;20486;-82
2024/01/31 04:08:53;;;;;;;1.60;1.30;;;7.40;98.20;;;;;;4971589;28;20489;-80
2024/01/31 04:11:20;;;;;;;1.60;1.20;;;7.40;98.20;;;;;;4951351;28;20851;-81
2024/01/31 04:13:47;;;;;;;1.57;1.30;;;7.40;98.20;;;;;;4962300;28;20470;-81
2024/01/31 04:16:17;;;;;;;1.60;1.20;;;7.40;98.20;;;;;;4954435;28;20590;-80
2024/01/31 04:18:44;;;;;;;1.60;1.30;;;7.40;98.20;;;;;;4967994;28;20543;-82
2024/01/31 04:21:10;;;;;;;1.60;1.30;;;7.40;98.20;;;;;;4951880;28;20493;-81
2024/01/31 04:23:39;;;;;;;1.60;1.20;;;7.40;98.20;;;;;;4959814;28;20475;-78
2024/01/31 04:26:06;;;;;;;1.60;1.20;;;7.40;98.20;;;;;;4952401;28;20559;-80
2024/01/31 04:28:33;;;;;;;1.60;1.20;;;7.40;98.20;;;;;;4957846;28;20460;-79
2024/01/31 04:30:59;;;;;;;1.60;1.30;;;7.40;98.20;;;;;;4951538;28;20463;-81
2024/01/31 04:33:26;;;;;;;1.60;1.30;;;7.40;98.20;;;;;;4964693;28;20526;-83
2024/01/31 04:35:53;;;;;;;1.60;1.30;;;7.40;98.20;;;;;;4954016;28;20498;-82
2024/01/31 04:38:20;;;;;;;1.60;1.30;;;7.40;98.20;;;;;;4965179;28;20501;-78
2024/01/31 04:40:48;;;;;;;1.60;1.20;;;7.40;98.20;;;;;;4961875;28;20466;-81
2024/01/31 04:43:17;;;;;;;1.60;1.20;;;7.40;98.20;;;;;;4949161;28;20832;-80
2024/01/31 04:45:44;;;;;;;1.60;1.20;;;7.40;98.20;;;;;;4954815;28;21156;-81
2024/01/31 04:48:11;;;;;;;1.60;1.20;;;7.30;98.20;;;;;;4955462;28;20483;-81
2024/01/31 04:50:37;;;;;;;1.60;1.30;;;7.30;98.20;;;;;;4959546;28;20714;-80
2024/01/31 04:53:05;;;;;;;1.60;1.30;;;7.30;98.20;;;;;;4962245;28;20505;-80
2024/01/31 04:55:31;;;;;;;1.60;1.30;;;7.30;98.20;;;;;;4961478;28;20601;-80
2024/01/31 04:58:00;;;;;;;1.60;1.20;;;7.30;98.20;;;;;;4947930;28;20567;-80
2024/01/31 05:00:28;;;;;;;1.60;1.20;;;7.30;98.20;;;;;;4959114;28;20482;-78
2024/01/31 05:02:54;;;;;;;1.60;1.20;;;7.30;98.20;;;;;;4971318;28;20474;-78
2024/01/31 05:05:21;;;;;;;1.60;1.20;;;7.30;98.20;;;;;;4962742;28;20570;-81
2024/01/31 05:07:48;;;;;;;1.60;1.30;;;7.30;98.20;;;;;;4966426;28;20496;-80
2024/01/31 05:10:15;;;;;;;1.60;1.20;;;7.30;98.20;;;;;;4963486;28;20489;-81
2024/01/31 05:12:42;;;;;;;2.30;2.07;;;7.30;98.20;;;;;;4968356;28;20600;-83
2024/01/31 05:15:10;;;;;;;1.60;1.30;;;7.30;98.20;;;;;;4953051;28;20487;-81
2024/01/31 05:17:37;;;;;;;1.53;1.20;;;7.30;98.20;;;;;;4966951;28;20481;-82
2024/01/31 05:20:05;;;;;;;1.57;1.20;;;7.20;98.20;;;;;;4965157;28;20518;-80
2024/01/31 05:22:32;;;;;;;1.60;1.30;;;7.20;98.20;;;;;;4963984;28;20514;-80
2024/01/31 05:24:58;;;;;;;1.60;1.30;;;7.20;98.20;;;;;;4955196;28;20467;-80
2024/01/31 05:27:25;;;;;;;1.60;1.30;;;7.20;98.20;;;;;;4946455;28;20550;-79
2024/01/31 05:29:52;;;;;;;1.60;1.30;;;7.20;98.20;;;;;;4959350;29;20544;-81
2024/01/31 05:32:20;;;;;;;1.60;1.20;;;7.20;98.20;;;;;;4957715;28;20817;-81
2024/01/31 05:34:48;;;;;;;1.60;1.30;;;7.20;98.20;;;;;;4966048;28;20459;-80
2024/01/31 05:37:15;;;;;;;1.60;1.20;;;7.20;98.20;;;;;;4961833;28;20933;-79
2024/01/31 05:39:42;;;;;;;1.57;1.20;;;7.10;98.20;;;;;;4969843;28;20497;-81
2024/01/31 05:42:09;;;;;;;1.60;1.20;;;7.10;98.20;;;;;;4958811;28;21122;-80
2024/01/31 05:44:35;;;;;;;1.60;1.27;;;7.10;98.20;;;;;;4957322;28;20557;-81
2024/01/31 05:47:03;;;;;;;1.60;1.20;;;7.20;98.20;;;;;;4961461;28;20553;-81
2024/01/31 05:49:31;;;;;;;1.57;1.20;;;7.20;98.20;;;;;;4957114;28;20559;-79
2024/01/31 05:51:58;;;;;;;1.60;1.20;;;7.20;98.20;;;;;;4960596;28;20717;-82
2024/01/31 05:54:24;;;;;;;1.60;1.40;;;7.20;98.20;;;;;;4965058;28;20489;-80
2024/01/31 05:56:52;;;;;;;1.60;1.20;;;7.20;98.20;;;;;;4953251;28;20510;-81
2024/01/31 05:59:19;;;;;;;1.60;1.30;;;7.20;98.20;;;;;;4964198;28;20497;-81
2024/01/31 06:01:46;;;;;;;1.60;1.30;;;7.20;98.20;;;;;;4956058;28;20546;-80
2024/01/31 06:04:13;;;;;;;1.57;1.20;;;7.20;98.20;;;;;;4967323;28;20467;-80
2024/01/31 06:06:42;;;;;;;1.60;1.20;;;7.10;98.20;;;;;;4951194;28;20477;-80
2024/01/31 06:09:09;;;;;;;1.60;1.30;;;7.10;98.20;;;;;;4964799;28;20492;-82
2024/01/31 06:11:35;;;;;;;1.60;1.20;;;7.10;98.20;;;;;;4946025;28;20486;-80
2024/01/31 06:14:02;;;;;;;1.60;1.20;;;7.10;98.20;;;;;;4964177;28;20460;-80
2024/01/31 06:16:29;;;;;;;1.60;1.30;;;7.10;98.20;;;;;;4953615;28;20550;-80
2024/01/31 06:18:56;;;;;;;1.60;1.27;;;7.10;98.20;;;;;;4973313;28;20487;-81
2024/01/31 06:21:23;;;;;;;1.60;1.20;;;7.10;98.20;;;;;;4951647;28;20484;-82
2024/01/31 06:23:51;;;;;;;1.60;1.20;;;7.10;98.20;;;;;;4970666;28;20467;-81
2024/01/31 06:26:18;;;;;;;1.60;1.20;;;7.10;98.20;;;;;;4953682;28;20478;-80
2024/01/31 06:28:48;;;;;;;1.60;1.30;;;7.10;98.20;;;;;;4973039;28;20507;-82
2024/01/31 06:31:24;;;;;;;1.60;1.30;;;7.10;98.20;;;;;;4947807;28;20530;-81
2024/01/31 06:33:50;;;;;;;1.60;1.20;;;7.10;98.20;;;;;;4971266;28;21005;-80
2024/01/31 06:36:18;;;;;;;1.57;1.20;;;7.10;98.20;;;;;;4955795;28;20488;-80
2024/01/31 06:38:45;;;;;;;1.60;1.27;;;7.10;98.20;;;;;;4968332;28;20479;-80
2024/01/31 06:41:14;;;;;;;1.60;1.20;;;7.10;98.20;;;;;;4948320;28;21185;-80
2024/01/31 06:43:41;;;;;;;1.60;1.20;;;7.10;98.20;;;;;;4969546;28;20478;-80
2024/01/31 06:46:08;;;;;;;1.60;1.30;;;7.10;98.20;;;;;;4951727;28;20481;-82
2024/01/31 06:48:35;;;;;;;1.60;1.23;;;7.10;98.20;;;;;;4972347;28;20481;-80
2024/01/31 06:51:02;;;;;;;1.60;1.20;;;7.10;98.20;;;;;;4949632;28;20557;-80
2024/01/31 06:53:29;;;;;;;1.60;1.30;;;7.10;98.20;;;;;;4971842;28;20475;-81
2024/01/31 06:55:56;;;;;;;1.57;1.27;;;7.10;98.20;;;;;;4946485;28;20478;-81
2024/01/31 06:58:24;;;;;;;1.60;1.20;;;7.10;98.20;;;;;;4969537;28;20602;-81
2024/01/31 07:00:54;;;;;;;1.60;1.20;;;7.10;98.20;;;;;;4948827;28;20468;-78
2024/01/31 07:03:23;;;;;;;1.60;1.20;;;7.10;98.20;;;;;;4967992;28;20950;-80
2024/01/31 07:05:50;;;;;;;1.60;1.30;;;7.10;98.20;;;;;;4951738;28;20512;-81
2024/01/31 07:08:17;;;;;;;1.60;1.20;;;7.10;98.20;;;;;;4952779;28;20469;-81
2024/01/31 07:10:44;;;;;;;1.60;1.30;;;7.10;98.20;;;;;;4959036;28;20576;-80
2024/01/31 07:13:10;;;;;;;1.60;1.20;;;7.10;98.20;;;;;;4966255;28;20486;-80
2024/01/31 07:15:38;;;;;;;1.60;1.20;;;7.10;98.20;;;;;;4952357;28;20475;-82
2024/01/31 07:18:06;;;;;;;1.57;1.20;;;7.10;98.20;;;;;;4948247;28;20494;-81
2024/01/31 07:20:32;;;;;;;1.60;1.20;;;7.10;98.20;;;;;;4954884;28;20868;-83
2024/01/31 07:22:59;;;;;;;1.60;1.33;;;7.10;98.20;;;;;;4964151;28;20478;-80
2024/01/31 07:25:26;;;;;;;1.60;1.20;;;7.10;98.20;;;;;;4959047;28;20461;-78
2024/01/31 07:27:52;;;;;;;1.60;1.30;;;7.10;98.20;;;;;;4965460;28;20476;-83
2024/01/31 07:30:20;;;;;;;1.60;1.20;;;7.00;98.20;;;;;;4960601;28;20486;-81
2024/01/31 07:32:48;;;;;;;1.60;1.30;;;7.00;98.20;;;;;;4965080;28;20477;-82
2024/01/31 07:35:15;;;;;;;1.60;1.20;;;7.00;98.20;;;;;;4958955;28;20466;-80
2024/01/31 07:37:42;;;;;;;1.60;1.30;;;7.00;98.20;;;;;;4963753;28;20488;-83
2024/01/31 07:40:12;;;;;;;1.60;1.30;;;7.00;98.20;;;;;;4960050;28;20497;-81
2024/01/31 07:42:39;;;;;;;1.60;1.23;;;7.00;98.20;;;;;;4963624;28;21054;-81
2024/01/31 07:45:08;;;;;;;1.57;1.20;;;7.00;98.20;;;;;;4960561;28;20815;-83
2024/01/31 07:47:36;;;;;;;1.60;1.30;;;7.00;98.20;;;;;;4960034;28;20488;-82
2024/01/31 07:50:06;;;;;;;1.60;1.27;;;6.90;98.20;;;;;;4957721;28;20495;-79
2024/01/31 07:52:33;;;;;;;1.60;1.30;;;6.90;98.20;;;;;;4944170;28;20485;-79
2024/01/31 07:55:00;;;;;;;1.60;1.20;;;6.90;98.20;;;;;;5010501;23;20600;-82
2024/01/31 07:57:26;;;;;;;1.60;1.40;;;7.00;98.20;;;;;;4993546;28;20480;-83
2024/01/31 07:59:53;;;;;;;1.60;1.30;;;7.00;98.20;;;;;;4998276;28;20542;-83
2024/01/31 08:02:20;;;;;;;1.60;1.20;;;7.00;98.20;;;;;;4996211;28;20519;-83
2024/01/31 08:04:47;;;;;;;1.60;1.30;;;7.00;98.20;;;;;;5000788;28;20515;-83
2024/01/31 08:07:15;;;;;;;1.60;1.20;;;7.00;98.20;;;;;;4990624;28;20472;-83
2024/01/31 08:09:42;;;;;;;1.60;1.30;;;7.00;98.20;;;;;;5000521;28;20477;-83
2024/01/31 08:12:09;;;;;;;1.60;1.30;;;7.00;98.20;;;;;;4996164;28;20491;-83
2024/01/31 08:14:36;;;;;;;1.60;1.20;;;7.10;98.20;;;;;;4999619;28;20489;-83
2024/01/31 08:17:03;;;;;;;1.60;1.20;;;7.10;98.20;;;;;;4990297;28;20504;-82
2024/01/31 08:19:30;;;;;;;1.53;1.17;;;7.10;98.20;;;;;;4995105;28;20462;-83
2024/01/31 08:21:59;;;;;;;1.60;1.23;;;7.10;98.20;;;;;;4974077;28;20496;-82
2024/01/31 08:24:28;;;;;;;1.60;1.30;;;7.20;98.20;;;;;;4969831;28;20487;-83
2024/01/31 08:26:54;;;;;;;1.60;1.20;;;7.20;98.20;;;;;;4963014;28;20474;-82
2024/01/31 08:29:22;;;;;;;1.60;1.30;;;7.20;98.20;;;;;;4972188;28;20529;-83
2024/01/31 08:31:49;;;;;;;1.60;1.20;;;7.20;98.20;;;;;;4970352;28;20564;-83
2024/01/31 08:34:17;;;;;;;1.60;1.30;;;7.20;98.20;;;;;;4984832;28;20520;-82
2024/01/31 08:36:43;;;;;;;1.60;1.37;;;7.20;98.20;;;;;;4976992;28;20484;-82
2024/01/31 08:39:10;;;;;;;1.60;1.20;;;7.30;98.20;;;;;;4986007;28;20897;-83
2024/01/31 08:44:52;;;;;;;1.60;1.30;;;7.20;98.20;;;;;;4977464;28;20587;-82
2024/01/31 08:47:19;;;;;;;1.60;1.20;;;7.30;98.20;;;;;;4959307;28;20472;-81
2024/01/31 08:49:52;;;;;;;1.60;1.30;;;7.20;98.20;;;;;;4971461;28;20494;-83
2024/01/31 08:52:19;;;;;;;1.60;1.30;;;7.30;98.20;;;;;;4986261;28;20476;-83
2024/01/31 08:54:50;;;;;;;1.60;1.20;;;7.20;98.20;;;;;;4994347;28;20485;-81
2024/01/31 08:57:23;;;;;;;1.60;1.20;;;7.20;98.20;;;;;;4972267;28;20553;-82
2024/01/31 08:59:52;;;;;;;1.60;1.20;;;7.20;98.20;;;;;;4981924;28;20489;-82
2024/01/31 09:02:19;;;;;;;1.60;1.20;;;7.20;98.20;;;;;;4973603;28;20481;-82
2024/01/31 09:04:48;;;;;;;1.60;1.20;;;7.30;98.20;;;;;;4982860;28;20481;-83
2024/01/31 09:07:49;;;;;;;1.57;1.20;;;7.20;98.20;;;;;;4981256;28;20473;-80
2024/01/31 09:10:16;;;;;;;1.60;1.23;;;7.30;98.20;;;;;;4985843;28;20470;-81
2024/01/31 09:13:16;;;;;;;1.57;1.20;;;7.30;98.20;;;;;;4980773;28;20486;-81
2024/01/31 09:15:49;;;;;;;1.53;1.13;;;7.30;98.20;;;;;;4982174;28;20465;-81
2024/01/31 09:21:43;;;;;;;1.60;1.40;;;7.30;98.20;;;;;;4974726;28;20477;-81
2024/01/31 09:24:40;;;;;;;1.57;1.20;;;7.30;98.20;;;;;;4986270;28;20482;-82
2024/01/31 09:27:35;;;;;;;1.57;1.30;;;7.40;98.20;;;;;;4890933;29;20566;-82
2024/01/31 09:30:14;;;;;;;1.60;1.30;;;7.40;98.20;;;;;;4928181;28;20461;-82
2024/01/31 09:33:24;;;;;;;1.60;1.30;;;7.40;98.20;;;;;;4976939;28;20585;-82
2024/01/31 09:36:02;;;;;;;1.60;1.30;;;7.40;98.20;;;;;;4961770;28;20988;-81
2024/01/31 09:41:50;;;;;;;1.53;1.20;;;7.40;98.20;;;;;;4973403;28;20463;-81
2024/01/31 09:44:41;;;;;;;1.53;1.20;;;7.40;98.20;;;;;;4957766;28;20516;-82
2024/01/31 09:47:28;;;;;;;1.60;1.20;;;7.40;98.20;;;;;;4974433;28;20489;-81
2024/01/31 09:49:55;;;;;;;1.60;1.20;;;7.50;98.20;;;;;;4981079;28;20469;-82
2024/01/31 09:58:45;;;;;;;1.60;1.20;;;7.50;98.20;;;;;;4946574;28;20514;-81
2024/01/31 10:01:13;;;;;;;1.53;1.20;;;7.50;98.20;;;;;;4972291;28;20473;-82
2024/01/31 10:04:19;;;;;;;1.53;1.20;;;7.50;98.20;;;;;;4983419;28;20494;-82
2024/01/31 10:10:06;;;;;;;1.60;1.20;;;7.60;98.20;;;;;;4962345;28;20557;-81
2024/01/31 10:12:54;;;;;;;1.60;1.20;;;7.60;98.20;;;;;;4977658;28;20480;-82
2024/01/31 10:15:34;;;;;;;;;;;;;;;;;;;;;
2024/01/31 10:18:06;;;;;;;1.57;1.20;;;7.70;98.20;;;;;;4972800;28;20474;-82
2024/01/31 10:20:34;;;;;;;1.60;1.20;;;7.70;98.20;;;;;;4980606;28;20489;-81
2024/01/31 10:23:02;;;;;;;1.60;1.20;;;7.80;98.20;;;;;;4968389;28;20553;-80
2024/01/31 10:25:31;;;;;;;1.60;1.20;;;7.80;98.20;;;;;;4983999;28;20461;-79
2024/01/31 10:27:58;;;;;;;1.57;1.10;;;7.90;98.20;;;;;;4975000;28;20495;-80
2024/01/31 10:30:29;;;;;;;1.53;1.20;;;7.90;98.20;;;;;;4983634;28;20458;-80
2024/01/31 10:32:58;;;;;;;1.57;1.10;;;7.90;98.20;;;;;;4972840;28;20465;-81
2024/01/31 10:35:24;;;;;;;1.53;1.20;;;7.90;98.20;;;;;;4980094;28;20506;-80
2024/01/31 10:37:53;;;;;;;1.60;1.30;;;7.90;98.20;;;;;;4975977;28;20495;-81
2024/01/31 10:40:20;;;;;;;1.53;1.10;;;7.90;98.20;;;;;;4982403;28;20453;-80
2024/01/31 10:42:47;;;;;;;1.60;1.20;;;7.90;98.20;;;;;;4978630;28;20545;-81
2024/01/31 10:45:15;;;;;;;1.53;1.20;;;7.90;98.20;;;;;;4979381;28;20481;-80
2024/01/31 10:47:44;;;;;;;1.57;1.10;;;8.00;98.20;;;;;;4967365;28;20492;-80
2024/01/31 10:50:13;;;;;;;1.57;1.20;;;8.00;98.20;;;;;;4973602;28;20538;-79
2024/01/31 10:52:43;;;;;;;1.57;1.20;;;8.10;98.20;;;;;;4966184;28;21114;-82
2024/01/31 10:55:12;;;;;;;1.60;1.20;;;8.10;98.20;;;;;;4979624;28;20490;-79
2024/01/31 10:57:41;;;;;;;1.60;1.17;;;8.20;98.20;;;;;;4967453;28;20561;-79
2024/01/31 11:00:10;;;;;;;1.53;1.13;;;8.10;98.20;;;;;;4971566;28;20465;-79
2024/01/31 11:02:37;;;;;;;1.60;1.20;;;8.20;98.20;;;;;;4964048;28;20488;-80
2024/01/31 11:05:05;;;;;;;1.53;1.10;;;8.20;98.20;;;;;;4974752;28;20481;-79
2024/01/31 11:07:33;;;;;;;1.50;1.10;;;8.20;98.20;;;;;;4972840;28;20569;-85
2024/01/31 11:10:00;;;;;;;3.40;3.20;;;8.20;98.20;;;;;;4977348;28;20832;-79
2024/01/31 11:12:29;;;;;;;1.60;1.20;;;8.30;98.20;;;;;;4967485;28;20542;-81
2024/01/31 11:14:58;;;;;;;1.57;1.03;;;8.30;98.20;;;;;;4976058;28;20980;-80
2024/01/31 11:17:27;;;;;;;1.60;1.10;;;8.40;98.20;;;;;;4961930;28;20724;-79
2024/01/31 11:19:56;;;;;;;1.57;1.23;;;8.50;98.20;;;;;;4979226;28;20523;-80
2024/01/31 11:22:23;;;;;;;1.57;1.10;;;8.50;98.20;;;;;;4968940;28;20581;-80
2024/01/31 11:24:52;;;;;;;1.60;1.20;;;8.60;98.20;;;;;;4975771;28;20701;-79
2024/01/31 11:27:19;;;;;;;1.57;1.10;;;8.60;98.20;;;;;;4964311;28;20486;-79
2024/01/31 11:29:50;;;;;;;1.60;1.17;;;8.70;98.20;;;;;;4975422;28;20476;-80
2024/01/31 11:32:17;;;;;;;1.57;1.17;;;8.80;98.20;;;;;;4965947;28;20778;-80
2024/01/31 11:34:44;;;;;;;1.53;1.20;;;8.80;98.20;;;;;;4978960;28;20993;-79
2024/01/31 11:37:11;;;;;;;1.57;1.10;;;8.80;98.20;;;;;;4970174;28;20476;-80
2024/01/31 11:39:38;;;;;;;1.57;1.10;;;8.90;98.20;;;;;;4977034;28;20496;-78
2024/01/31 11:42:06;;;;;;;1.53;1.10;;;9.00;98.20;;;;;;4962643;28;20496;-81
2024/01/31 11:44:35;;;;;;;1.53;1.10;;;9.00;98.20;;;;;;4977787;28;20497;-80
2024/01/31 11:47:04;;;;;;;1.53;1.10;;;9.10;98.20;;;;;;4968942;28;20505;-79
2024/01/31 11:49:31;;;;;;;1.53;1.10;;;9.10;98.20;;;;;;4974371;28;20472;-80
2024/01/31 11:51:57;;;;;;;1.50;1.10;;;9.10;98.20;;;;;;4975340;28;20477;-82
2024/01/31 11:54:24;;;;;;;1.57;1.07;;;9.20;98.20;;;;;;4982174;28;20495;-81
2024/01/31 11:56:52;;;;;;;1.60;1.10;;;9.20;98.20;;;;;;4972197;28;20485;-82
2024/01/31 11:59:19;;;;;;;1.57;1.10;;;9.20;98.20;;;;;;4976671;28;20538;-79
2024/01/31 12:01:46;;;;;;;1.53;1.10;;;9.20;98.20;;;;;;4965066;28;20474;-78
2024/01/31 12:04:14;;;;;;;1.57;1.20;;;9.20;98.20;;;;;;4978056;28;20549;-80
2024/01/31 12:06:41;;;;;;;1.60;1.10;;;9.30;98.20;;;;;;4968726;28;20490;-80
2024/01/31 12:09:09;;;;;;;1.50;1.10;;;9.30;98.20;;;;;;4976996;28;20466;-81
2024/01/31 12:11:35;;;;;;;1.60;1.10;;;9.30;98.20;;;;;;4967583;28;20505;-80
2024/01/31 12:14:02;;;;;;;1.60;1.17;;;9.40;98.20;;;;;;4977316;28;20493;-80
2024/01/31 12:16:39;;;;;;;1.57;1.10;;;9.40;98.20;;;;;;4962011;28;20486;-80
2024/01/31 12:19:07;;;;;;;1.50;1.10;;;9.40;98.20;;;;;;4974893;28;20485;-79
2024/01/31 12:21:42;;;;;;;1.53;1.10;;;9.40;98.20;;;;;;4970384;28;20485;-79
2024/01/31 12:24:30;;;;;;;1.57;1.10;;;9.40;98.20;;;;;;4973975;28;20492;-79
2024/01/31 12:26:57;;;;;;;1.53;1.10;;;9.40;98.20;;;;;;4970835;28;20478;-80
2024/01/31 12:29:24;;;;;;;1.53;1.10;;;9.40;98.20;;;;;;4978548;28;20498;-80
2024/01/31 12:31:51;;;;;;;1.57;1.10;;;9.40;98.20;;;;;;4967477;28;20498;-79
2024/01/31 12:34:18;;;;;;;1.53;1.10;;;9.40;98.20;;;;;;4976660;28;20560;-80
2024/01/31 12:36:46;;;;;;;1.60;1.10;;;9.30;98.20;;;;;;4964577;28;20553;-80
2024/01/31 12:39:17;;;;;;;1.53;1.10;;;9.30;98.20;;;;;;4974547;28;20619;-80
2024/01/31 12:41:44;;;;;;;1.57;1.00;;;9.20;98.20;;;;;;4972770;28;20489;-79
2024/01/31 12:44:11;;;;;;;1.53;1.00;;;9.20;98.20;;;;;;4982462;28;20482;-81
2024/01/31 12:46:37;;;;;;;1.57;1.10;;;9.20;98.20;;;;;;4965602;28;20490;-80
2024/01/31 12:49:04;;;;;;;1.50;1.10;;;9.20;98.20;;;;;;4976666;28;20466;-81
2024/01/31 12:51:33;;;;;;;1.60;1.20;;;9.20;98.20;;;;;;4967301;28;20564;-79
2024/01/31 12:54:01;;;;;;;1.57;1.20;;;9.10;98.20;;;;;;4975707;28;20486;-80
2024/01/31 12:56:34;;;;;;;1.53;1.10;;;9.10;98.20;;;;;;4969218;28;20524;-80
2024/01/31 12:59:01;;;;;;;1.50;1.20;;;9.10;98.20;;;;;;4970261;28;20486;-80
2024/01/31 13:01:43;;;;;;;1.60;1.30;;;9.10;98.20;;;;;;4962728;28;21645;-79
2024/01/31 13:04:09;;;;;;;1.60;1.10;;;9.00;98.20;;;;;;4974614;28;20478;-80
2024/01/31 13:06:36;;;;;;;1.53;1.10;;;9.00;98.20;;;;;;4966731;28;20541;-80
2024/01/31 13:09:04;;;;;;;1.57;1.20;;;9.00;98.20;;;;;;4974042;28;20534;-80
2024/01/31 13:11:31;;;;;;;1.60;1.10;;;9.00;98.20;;;;;;4964644;28;20484;-80
2024/01/31 13:13:58;;;;;;;1.57;1.10;;;9.00;98.20;;;;;;4974845;28;20500;-79
2024/01/31 13:16:25;;;;;;;1.53;1.10;;;9.00;98.20;;;;;;4961353;28;20488;-80
2024/01/31 13:18:51;;;;;;;1.57;1.20;;;8.90;98.20;;;;;;4981813;28;20838;-79
2024/01/31 13:21:18;;;;;;;1.50;1.20;;;8.90;98.20;;;;;;4964123;28;20477;-79
2024/01/31 13:23:45;;;;;;;1.57;1.10;;;8.90;98.20;;;;;;4976822;28;21338;-79